sensor_id;sensor_type;location;lat;lon;timestamp;pressure;altitude;pressure_sealevel;temperature;humidity
54994;BME280;40891;47.242;8.648;2023-03-01T00:00:54;96814.91;;;1.63;84.36
54994;BME280;40891;47.242;8.648;2023-03-01T00:03:19;96819.97;;;1.58;84.23
54994;BME280;40891;47.242;8.648;2023-03-01T00:05:45;96809.78;;;1.58;84.18
54994;BME280;40891;47.242;8.648;2023-03-01T00:08:11;96811.75;;;1.58;85.38
54994;BME280;40891;47.242;8.648;2023-03-01T00:10:36;96808.63;;;1.63;84.21
54994;BME280;40891;47.242;8.648;2023-03-01T00:13:01;96803.91;;;1.56;84.95
54994;BME280;40891;47.242;8.648;2023-03-01T00:15:27;96800.75;;;1.54;84.33
54994;BME280;40891;47.242;8.648;2023-03-01T00:17:52;96789.06;;;1.64;84.34
54994;BME280;40891;47.242;8.648;2023-03-01T00:20:18;96793.72;;;1.57;84.88
54994;BME280;40891;47.242;8.648;2023-03-01T00:22:43;96794.16;;;1.66;83.87
54994;BME280;40891;47.242;8.648;2023-03-01T00:25:08;96792.19;;;1.63;84.95
54994;BME280;40891;47.242;8.648;2023-03-01T00:27:34;96792.16;;;1.59;84.86
54994;BME280;40891;47.242;8.648;2023-03-01T00:29:59;96793.72;;;1.57;84.38
54994;BME280;40891;47.242;8.648;2023-03-01T00:32:24;96787.09;;;1.61;84.22
54994;BME280;40891;47.242;8.648;2023-03-01T00:34:50;96784.72;;;1.53;84.72
54994;BME280;40891;47.242;8.648;2023-03-01T00:37:21;96782.75;;;1.57;84.40
54994;BME280;40891;47.242;8.648;2023-03-01T00:39:47;96786.69;;;1.56;84.96
54994;BME280;40891;47.242;8.648;2023-03-01T00:42:12;96781.59;;;1.58;85.28
54994;BME280;40891;47.242;8.648;2023-03-01T00:44:38;96787.09;;;1.58;84.93
54994;BME280;40891;47.242;8.648;2023-03-01T00:47:03;96788.25;;;1.57;84.71
54994;BME280;40891;47.242;8.648;2023-03-01T00:49:28;96784.34;;;1.58;85.24
54994;BME280;40891;47.242;8.648;2023-03-01T00:51:54;96781.22;;;1.59;84.34
54994;BME280;40891;47.242;8.648;2023-03-01T00:54:19;96794.53;;;1.61;84.84
54994;BME280;40891;47.242;8.648;2023-03-01T00:56:44;96783.59;;;1.61;84.34
54994;BME280;40891;47.242;8.648;2023-03-01T00:59:10;96789.03;;;1.57;85.23
54994;BME280;40891;47.242;8.648;2023-03-01T01:01:35;96788.63;;;1.59;85.17
54994;BME280;40891;47.242;8.648;2023-03-01T01:04:06;96773.00;;;1.56;84.37
54994;BME280;40891;47.242;8.648;2023-03-01T01:06:35;96767.88;;;1.54;84.79
54994;BME280;40891;47.242;8.648;2023-03-01T01:09:03;96767.13;;;1.54;84.37
54994;BME280;40891;47.242;8.648;2023-03-01T01:11:29;96769.44;;;1.52;84.45
54994;BME280;40891;47.242;8.648;2023-03-01T01:13:55;96765.13;;;1.54;84.72
54994;BME280;40891;47.242;8.648;2023-03-01T01:16:22;96755.38;;;1.57;84.62
54994;BME280;40891;47.242;8.648;2023-03-01T01:18:48;96759.66;;;1.54;84.54
54994;BME280;40891;47.242;8.648;2023-03-01T01:21:16;96758.91;;;1.54;85.53
54994;BME280;40891;47.242;8.648;2023-03-01T01:23:42;96753.38;;;1.47;84.78
54994;BME280;40891;47.242;8.648;2023-03-01T01:26:18;96754.19;;;1.54;85.15
54994;BME280;40891;47.242;8.648;2023-03-01T01:28:43;96750.69;;;1.54;85.02
54994;BME280;40891;47.242;8.648;2023-03-01T01:31:09;96753.78;;;1.49;85.65
54994;BME280;40891;47.242;8.648;2023-03-01T01:33:34;96745.97;;;1.51;85.41
54994;BME280;40891;47.242;8.648;2023-03-01T01:36:00;96747.50;;;1.52;85.03
54994;BME280;40891;47.242;8.648;2023-03-01T01:38:25;96745.19;;;1.54;85.50
54994;BME280;40891;47.242;8.648;2023-03-01T01:40:51;96738.16;;;1.56;84.95
54994;BME280;40891;47.242;8.648;2023-03-01T01:43:27;96750.69;;;1.54;85.01
54994;BME280;40891;47.242;8.648;2023-03-01T01:45:56;96740.13;;;1.59;84.92
54994;BME280;40891;47.242;8.648;2023-03-01T01:48:29;96735.00;;;1.51;85.14
54994;BME280;40891;47.242;8.648;2023-03-01T01:51:07;96736.16;;;1.50;85.02
54994;BME280;40891;47.242;8.648;2023-03-01T01:53:35;96721.28;;;1.47;85.64
54994;BME280;40891;47.242;8.648;2023-03-01T01:56:02;96726.38;;;1.49;85.10
54994;BME280;40891;47.242;8.648;2023-03-01T01:58:29;96729.13;;;1.49;85.11
54994;BME280;40891;47.242;8.648;2023-03-01T02:00:55;96731.47;;;1.47;85.50
54994;BME280;40891;47.242;8.648;2023-03-01T02:03:29;96726.34;;;1.45;85.39
54994;BME280;40891;47.242;8.648;2023-03-01T02:06:04;96722.47;;;1.46;85.91
54994;BME280;40891;47.242;8.648;2023-03-01T02:08:33;96714.63;;;1.52;85.68
54994;BME280;40891;47.242;8.648;2023-03-01T02:11:00;96720.50;;;1.47;86.19
54994;BME280;40891;47.242;8.648;2023-03-01T02:13:26;96722.06;;;1.48;86.25
54994;BME280;40891;47.242;8.648;2023-03-01T02:15:52;96714.22;;;1.43;86.00
54994;BME280;40891;47.242;8.648;2023-03-01T02:18:20;96715.41;;;1.45;86.52
54994;BME280;40891;47.242;8.648;2023-03-01T02:23:20;96702.50;;;1.49;87.41
54994;BME280;40891;47.242;8.648;2023-03-01T02:25:56;96703.66;;;1.45;86.52
54994;BME280;40891;47.242;8.648;2023-03-01T02:28:26;96702.09;;;1.44;86.86
54994;BME280;40891;47.242;8.648;2023-03-01T02:30:53;96695.88;;;1.47;87.25
54994;BME280;40891;47.242;8.648;2023-03-01T02:33:38;96693.50;;;1.45;87.22
54994;BME280;40891;47.242;8.648;2023-03-01T02:36:08;96686.50;;;1.51;86.29
54994;BME280;40891;47.242;8.648;2023-03-01T02:38:34;96689.63;;;1.57;86.43
54994;BME280;40891;47.242;8.648;2023-03-01T02:41:00;96686.50;;;1.58;86.56
54994;BME280;40891;47.242;8.648;2023-03-01T02:43:31;96683.34;;;1.53;86.68
54994;BME280;40891;47.242;8.648;2023-03-01T02:46:07;96679.03;;;1.48;86.89
54994;BME280;40891;47.242;8.648;2023-03-01T02:48:45;96684.13;;;1.57;87.01
54994;BME280;40891;47.242;8.648;2023-03-01T02:54:13;96686.84;;;1.50;87.15
54994;BME280;40891;47.242;8.648;2023-03-01T02:56:41;96681.78;;;1.48;87.57
54994;BME280;40891;47.242;8.648;2023-03-01T02:59:07;96682.16;;;1.47;87.12
54994;BME280;40891;47.242;8.648;2023-03-01T03:01:33;96672.75;;;1.44;86.90
54994;BME280;40891;47.242;8.648;2023-03-01T03:04:04;96671.56;;;1.45;87.09
54994;BME280;40891;47.242;8.648;2023-03-01T03:06:29;96666.50;;;1.44;87.28
54994;BME280;40891;47.242;8.648;2023-03-01T03:08:54;96666.50;;;1.44;87.20
54994;BME280;40891;47.242;8.648;2023-03-01T03:11:20;96662.59;;;1.52;87.97
54994;BME280;40891;47.242;8.648;2023-03-01T03:13:46;96659.84;;;1.48;87.86
54994;BME280;40891;47.242;8.648;2023-03-01T03:16:13;96672.78;;;1.51;86.90
54994;BME280;40891;47.242;8.648;2023-03-01T03:18:38;96670.41;;;1.50;87.47
54994;BME280;40891;47.242;8.648;2023-03-01T03:21:08;96663.00;;;1.50;87.44
54994;BME280;40891;47.242;8.648;2023-03-01T03:23:35;96670.06;;;1.51;88.19
54994;BME280;40891;47.242;8.648;2023-03-01T03:26:01;96670.03;;;1.55;87.39
54994;BME280;40891;47.242;8.648;2023-03-01T03:28:35;96668.09;;;1.66;87.49
54994;BME280;40891;47.242;8.648;2023-03-01T03:31:00;96661.44;;;1.53;87.44
54994;BME280;40891;47.242;8.648;2023-03-01T03:33:30;96657.13;;;1.52;87.30
54994;BME280;40891;47.242;8.648;2023-03-01T03:35:55;96652.81;;;1.51;87.76
54994;BME280;40891;47.242;8.648;2023-03-01T03:38:20;96650.84;;;1.44;87.77
54994;BME280;40891;47.242;8.648;2023-03-01T03:40:59;96664.13;;;1.42;87.92
54994;BME280;40891;47.242;8.648;2023-03-01T03:43:27;96661.84;;;1.51;87.96
54994;BME280;40891;47.242;8.648;2023-03-01T03:45:53;96657.50;;;1.47;87.91
54994;BME280;40891;47.242;8.648;2023-03-01T03:48:19;96655.16;;;1.52;88.31
54994;BME280;40891;47.242;8.648;2023-03-01T03:50:50;96663.38;;;1.52;87.66
54994;BME280;40891;47.242;8.648;2023-03-01T03:53:17;96658.66;;;1.46;88.43
54994;BME280;40891;47.242;8.648;2023-03-01T03:55:42;96648.09;;;1.48;88.07
54994;BME280;40891;47.242;8.648;2023-03-01T03:58:10;96659.09;;;1.51;87.86
54994;BME280;40891;47.242;8.648;2023-03-01T04:00:38;96650.50;;;1.56;88.18
54994;BME280;40891;47.242;8.648;2023-03-01T04:03:04;96657.13;;;1.52;87.98
54994;BME280;40891;47.242;8.648;2023-03-01T04:05:30;96655.97;;;1.60;88.01
54994;BME280;40891;47.242;8.648;2023-03-01T04:07:56;96658.72;;;1.60;87.42
54994;BME280;40891;47.242;8.648;2023-03-01T04:10:33;96650.88;;;1.51;87.34
54994;BME280;40891;47.242;8.648;2023-03-01T04:12:58;96651.63;;;1.52;87.57
54994;BME280;40891;47.242;8.648;2023-03-01T04:15:26;96649.69;;;1.49;88.47
54994;BME280;40891;47.242;8.648;2023-03-01T04:17:52;96652.03;;;1.47;87.42
54994;BME280;40891;47.242;8.648;2023-03-01T04:20:21;96652.44;;;1.49;87.78
54994;BME280;40891;47.242;8.648;2023-03-01T04:22:58;96650.47;;;1.46;88.18
54994;BME280;40891;47.242;8.648;2023-03-01T04:25:24;96657.50;;;1.47;88.06
54994;BME280;40891;47.242;8.648;2023-03-01T04:27:49;96650.06;;;1.44;87.67
54994;BME280;40891;47.242;8.648;2023-03-01T04:30:14;96654.38;;;1.52;87.99
54994;BME280;40891;47.242;8.648;2023-03-01T04:32:40;96654.34;;;1.45;88.29
54994;BME280;40891;47.242;8.648;2023-03-01T04:35:05;96652.03;;;1.50;87.57
54994;BME280;40891;47.242;8.648;2023-03-01T04:37:31;96648.91;;;1.52;87.71
54994;BME280;40891;47.242;8.648;2023-03-01T04:39:56;96660.66;;;1.56;87.19
54994;BME280;40891;47.242;8.648;2023-03-01T04:42:21;96651.25;;;1.50;87.06
54994;BME280;40891;47.242;8.648;2023-03-01T04:44:46;96656.31;;;1.48;87.31
54994;BME280;40891;47.242;8.648;2023-03-01T04:47:12;96648.09;;;1.48;87.44
54994;BME280;40891;47.242;8.648;2023-03-01T04:49:37;96649.69;;;1.49;87.26
54994;BME280;40891;47.242;8.648;2023-03-01T04:52:03;96645.75;;;1.46;87.29
54994;BME280;40891;47.242;8.648;2023-03-01T04:54:30;96650.09;;;1.51;86.78
54994;BME280;40891;47.242;8.648;2023-03-01T04:56:55;96646.16;;;1.48;86.70
54994;BME280;40891;47.242;8.648;2023-03-01T04:59:21;96642.63;;;1.48;86.69
54994;BME280;40891;47.242;8.648;2023-03-01T05:01:53;96638.34;;;1.47;87.37
54994;BME280;40891;47.242;8.648;2023-03-01T05:04:20;96634.41;;;1.48;87.66
54994;BME280;40891;47.242;8.648;2023-03-01T05:06:46;96632.06;;;1.50;87.26
54994;BME280;40891;47.242;8.648;2023-03-01T05:09:11;96633.25;;;1.52;86.98
54994;BME280;40891;47.242;8.648;2023-03-01T05:11:37;96633.25;;;1.49;87.21
54994;BME280;40891;47.242;8.648;2023-03-01T05:14:03;96627.78;;;1.49;87.62
54994;BME280;40891;47.242;8.648;2023-03-01T05:16:28;96628.53;;;1.49;87.17
54994;BME280;40891;47.242;8.648;2023-03-01T05:18:55;96623.06;;;1.46;87.59
54994;BME280;40891;47.242;8.648;2023-03-01T05:21:21;96629.34;;;1.46;87.34
54994;BME280;40891;47.242;8.648;2023-03-01T05:23:47;96626.59;;;1.50;87.79
54994;BME280;40891;47.242;8.648;2023-03-01T05:26:12;96621.91;;;1.50;87.16
54994;BME280;40891;47.242;8.648;2023-03-01T05:28:38;96619.19;;;1.54;87.29
54994;BME280;40891;47.242;8.648;2023-03-01T05:31:03;96616.81;;;1.52;87.30
54994;BME280;40891;47.242;8.648;2023-03-01T05:33:35;96610.97;;;1.54;86.86
54994;BME280;40891;47.242;8.648;2023-03-01T05:36:01;96608.19;;;1.50;86.79
54994;BME280;40891;47.242;8.648;2023-03-01T05:38:26;96610.53;;;1.45;87.26
54994;BME280;40891;47.242;8.648;2023-03-01T05:40:51;96608.19;;;1.50;86.12
54994;BME280;40891;47.242;8.648;2023-03-01T05:43:17;96608.59;;;1.49;86.68
54994;BME280;40891;47.242;8.648;2023-03-01T05:45:43;96596.47;;;1.46;86.68
54994;BME280;40891;47.242;8.648;2023-03-01T05:48:10;96603.13;;;1.49;86.60
54994;BME280;40891;47.242;8.648;2023-03-01T05:50:38;96596.47;;;1.50;86.70
54994;BME280;40891;47.242;8.648;2023-03-01T05:53:13;96598.03;;;1.51;86.70
54994;BME280;40891;47.242;8.648;2023-03-01T05:55:40;96601.16;;;1.53;87.18
54994;BME280;40891;47.242;8.648;2023-03-01T05:58:08;96593.34;;;1.55;87.48
54994;BME280;40891;47.242;8.648;2023-03-01T06:00:35;96592.59;;;1.65;86.85
54994;BME280;40891;47.242;8.648;2023-03-01T06:03:00;96594.91;;;1.56;86.81
54994;BME280;40891;47.242;8.648;2023-03-01T06:05:27;96588.25;;;1.53;86.40
54994;BME280;40891;47.242;8.648;2023-03-01T06:07:53;96590.22;;;1.53;86.50
54994;BME280;40891;47.242;8.648;2023-03-01T06:10:20;96592.94;;;1.53;86.20
54994;BME280;40891;47.242;8.648;2023-03-01T06:12:46;96584.72;;;1.53;86.97
54994;BME280;40891;47.242;8.648;2023-03-01T06:15:14;96582.38;;;1.51;86.92
54994;BME280;40891;47.242;8.648;2023-03-01T06:17:41;96589.44;;;1.59;87.59
54994;BME280;40891;47.242;8.648;2023-03-01T06:22:41;96578.09;;;1.68;86.53
54994;BME280;40891;47.242;8.648;2023-03-01T06:25:07;96580.06;;;1.67;87.07
54994;BME280;40891;47.242;8.648;2023-03-01T06:27:33;96585.53;;;1.71;85.83
54994;BME280;40891;47.242;8.648;2023-03-01T06:29:58;96582.41;;;1.69;86.00
54994;BME280;40891;47.242;8.648;2023-03-01T06:32:24;96589.06;;;1.68;85.46
54994;BME280;40891;47.242;8.648;2023-03-01T06:34:49;96586.34;;;1.75;84.92
54994;BME280;40891;47.242;8.648;2023-03-01T06:37:15;96583.97;;;1.80;84.98
54994;BME280;40891;47.242;8.648;2023-03-01T06:39:40;96585.16;;;1.79;84.93
54994;BME280;40891;47.242;8.648;2023-03-01T06:42:07;96581.63;;;1.75;84.51
54994;BME280;40891;47.242;8.648;2023-03-01T06:44:33;96580.06;;;1.74;84.73
54994;BME280;40891;47.242;8.648;2023-03-01T06:46:58;96585.16;;;1.83;84.35
54994;BME280;40891;47.242;8.648;2023-03-01T06:49:24;96587.50;;;1.77;84.18
54994;BME280;40891;47.242;8.648;2023-03-01T06:51:49;96582.41;;;1.83;84.14
54994;BME280;40891;47.242;8.648;2023-03-01T06:54:15;96586.72;;;1.87;83.17
54994;BME280;40891;47.242;8.648;2023-03-01T06:56:40;96586.72;;;1.84;83.04
54994;BME280;40891;47.242;8.648;2023-03-01T06:59:05;96590.25;;;1.84;82.21
54994;BME280;40891;47.242;8.648;2023-03-01T07:01:31;96591.03;;;1.88;82.88
54994;BME280;40891;47.242;8.648;2023-03-01T07:03:56;96581.22;;;1.94;82.74
54994;BME280;40891;47.242;8.648;2023-03-01T07:06:22;96583.22;;;2.01;83.13
54994;BME280;40891;47.242;8.648;2023-03-01T07:08:48;96584.75;;;1.88;83.21
54994;BME280;40891;47.242;8.648;2023-03-01T07:11:13;96584.38;;;1.86;83.28
54994;BME280;40891;47.242;8.648;2023-03-01T07:13:39;96586.72;;;1.91;83.10
54994;BME280;40891;47.242;8.648;2023-03-01T07:16:05;96580.88;;;1.89;83.50
54994;BME280;40891;47.242;8.648;2023-03-01T07:18:30;96579.69;;;2.00;82.62
54994;BME280;40891;47.242;8.648;2023-03-01T07:20:55;96578.50;;;1.98;82.47
54994;BME280;40891;47.242;8.648;2023-03-01T07:23:21;96578.91;;;2.00;82.70
54994;BME280;40891;47.242;8.648;2023-03-01T07:25:53;96583.22;;;2.08;82.40
54994;BME280;40891;47.242;8.648;2023-03-01T07:28:19;96587.13;;;2.07;82.42
54994;BME280;40891;47.242;8.648;2023-03-01T07:30:44;96591.81;;;2.03;82.81
54994;BME280;40891;47.242;8.648;2023-03-01T07:33:09;96587.50;;;2.09;82.45
54994;BME280;40891;47.242;8.648;2023-03-01T07:35:35;96583.22;;;2.15;81.89
54994;BME280;40891;47.242;8.648;2023-03-01T07:38:00;96582.03;;;2.05;82.78
54994;BME280;40891;47.242;8.648;2023-03-01T07:40:25;96578.88;;;2.03;82.68
54994;BME280;40891;47.242;8.648;2023-03-01T07:42:55;96582.03;;;2.09;82.44
54994;BME280;40891;47.242;8.648;2023-03-01T07:45:21;96582.41;;;2.08;82.62
54994;BME280;40891;47.242;8.648;2023-03-01T07:47:46;96580.84;;;2.06;81.60
54994;BME280;40891;47.242;8.648;2023-03-01T07:50:11;96572.22;;;2.12;82.21
54994;BME280;40891;47.242;8.648;2023-03-01T07:52:38;96578.50;;;2.12;81.64
54994;BME280;40891;47.242;8.648;2023-03-01T07:55:04;96568.31;;;2.16;82.70
54994;BME280;40891;47.242;8.648;2023-03-01T07:57:29;96571.81;;;2.24;82.44
54994;BME280;40891;47.242;8.648;2023-03-01T07:59:54;96567.91;;;2.21;81.90
54994;BME280;40891;47.242;8.648;2023-03-01T08:02:20;96569.06;;;2.27;81.68
54994;BME280;40891;47.242;8.648;2023-03-01T08:04:45;96578.47;;;2.33;81.27
54994;BME280;40891;47.242;8.648;2023-03-01T08:07:10;96568.66;;;2.32;81.76
54994;BME280;40891;47.242;8.648;2023-03-01T08:09:35;96571.41;;;2.32;80.40
54994;BME280;40891;47.242;8.648;2023-03-01T08:12:04;96564.38;;;2.31;80.56
54994;BME280;40891;47.242;8.648;2023-03-01T08:14:31;96562.78;;;2.37;80.47
54994;BME280;40891;47.242;8.648;2023-03-01T08:16:57;96567.47;;;2.44;79.99
54994;BME280;40891;47.242;8.648;2023-03-01T08:19:22;96558.84;;;2.49;80.41
54994;BME280;40891;47.242;8.648;2023-03-01T08:21:47;96561.19;;;2.50;79.99
54994;BME280;40891;47.242;8.648;2023-03-01T08:24:13;96563.94;;;2.57;80.27
54994;BME280;40891;47.242;8.648;2023-03-01T08:26:38;96558.06;;;2.55;80.41
54994;BME280;40891;47.242;8.648;2023-03-01T08:29:04;96560.41;;;2.57;79.75
54994;BME280;40891;47.242;8.648;2023-03-01T08:31:35;96551.00;;;2.51;80.01
54994;BME280;40891;47.242;8.648;2023-03-01T08:34:02;96559.59;;;2.56;81.35
54994;BME280;40891;47.242;8.648;2023-03-01T08:36:30;96559.59;;;2.63;79.70
54994;BME280;40891;47.242;8.648;2023-03-01T08:38:56;96554.88;;;2.60;79.42
54994;BME280;40891;47.242;8.648;2023-03-01T08:41:21;96555.69;;;2.64;79.44
54994;BME280;40891;47.242;8.648;2023-03-01T08:43:47;96545.44;;;2.75;79.90
54994;BME280;40891;47.242;8.648;2023-03-01T08:46:12;96548.19;;;2.75;79.33
54994;BME280;40891;47.242;8.648;2023-03-01T08:48:38;96546.59;;;2.74;79.86
54994;BME280;40891;47.242;8.648;2023-03-01T08:53:33;96545.03;;;2.77;79.71
54994;BME280;40891;47.242;8.648;2023-03-01T08:56:02;96546.22;;;2.76;79.80
54994;BME280;40891;47.242;8.648;2023-03-01T08:58:28;96544.66;;;2.75;79.47
54994;BME280;40891;47.242;8.648;2023-03-01T09:00:53;96541.50;;;2.80;78.95
54994;BME280;40891;47.242;8.648;2023-03-01T09:03:18;96546.13;;;2.94;78.35
54994;BME280;40891;47.242;8.648;2023-03-01T09:05:44;96543.84;;;2.89;78.13
54994;BME280;40891;47.242;8.648;2023-03-01T09:08:11;96535.91;;;3.01;78.43
54994;BME280;40891;47.242;8.648;2023-03-01T09:10:38;96530.44;;;2.98;77.58
54994;BME280;40891;47.242;8.648;2023-03-01T09:13:04;96528.88;;;3.00;78.65
54994;BME280;40891;47.242;8.648;2023-03-01T09:15:29;96524.53;;;2.99;78.51
54994;BME280;40891;47.242;8.648;2023-03-01T09:17:54;96524.97;;;2.98;77.78
54994;BME280;40891;47.242;8.648;2023-03-01T09:20:20;96520.19;;;3.09;77.65
54994;BME280;40891;47.242;8.648;2023-03-01T09:22:45;96515.44;;;3.13;77.17
54994;BME280;40891;47.242;8.648;2023-03-01T09:25:10;96515.38;;;3.27;77.04
54994;BME280;40891;47.242;8.648;2023-03-01T09:27:36;96516.91;;;3.35;76.70
54994;BME280;40891;47.242;8.648;2023-03-01T09:30:02;96516.91;;;3.35;76.32
54994;BME280;40891;47.242;8.648;2023-03-01T09:32:30;96517.59;;;3.46;76.15
54994;BME280;40891;47.242;8.648;2023-03-01T09:34:55;96517.59;;;3.50;75.83
54994;BME280;40891;47.242;8.648;2023-03-01T09:37:30;96515.97;;;3.56;75.49
54994;BME280;40891;47.242;8.648;2023-03-01T09:39:55;96519.06;;;3.61;74.60
54994;BME280;40891;47.242;8.648;2023-03-01T09:42:21;96513.16;;;3.66;74.78
54994;BME280;40891;47.242;8.648;2023-03-01T09:44:54;96511.06;;;3.81;72.97
54994;BME280;40891;47.242;8.648;2023-03-01T09:47:26;96508.81;;;3.69;74.41
54994;BME280;40891;47.242;8.648;2023-03-01T09:50:14;96506.31;;;3.85;74.33
54994;BME280;40891;47.242;8.648;2023-03-01T09:53:43;96509.41;;;3.90;72.96
54994;BME280;40891;47.242;8.648;2023-03-01T10:01:27;96495.59;;;3.97;72.57
54994;BME280;40891;47.242;8.648;2023-03-01T10:06:37;96492.94;;;3.83;71.81
54994;BME280;40891;47.242;8.648;2023-03-01T10:09:10;96483.47;;;3.91;72.31
54994;BME280;40891;47.242;8.648;2023-03-01T10:11:38;96486.63;;;3.90;73.14
54994;BME280;40891;47.242;8.648;2023-03-01T10:16:48;96487.34;;;3.97;72.39
54994;BME280;40891;47.242;8.648;2023-03-01T10:19:31;96493.53;;;4.05;72.05
54994;BME280;40891;47.242;8.648;2023-03-01T10:22:04;96484.75;;;4.21;71.28
54994;BME280;40891;47.242;8.648;2023-03-01T10:24:34;96487.16;;;4.19;70.42
54994;BME280;40891;47.242;8.648;2023-03-01T10:27:34;96493.91;;;4.10;69.04
54994;BME280;40891;47.242;8.648;2023-03-01T10:30:12;96491.59;;;4.05;70.19
54994;BME280;40891;47.242;8.648;2023-03-01T10:32:41;96487.22;;;4.11;70.08
54994;BME280;40891;47.242;8.648;2023-03-01T10:35:19;96483.31;;;4.09;69.74
54994;BME280;40891;47.242;8.648;2023-03-01T10:37:57;96477.25;;;4.25;71.12
54994;BME280;40891;47.242;8.648;2023-03-01T10:40:23;96486.00;;;4.16;70.31
54994;BME280;40891;47.242;8.648;2023-03-01T10:42:49;96480.38;;;4.27;71.57
54994;BME280;40891;47.242;8.648;2023-03-01T10:47:42;96476.81;;;4.30;69.35
54994;BME280;40891;47.242;8.648;2023-03-01T10:50:22;96476.03;;;4.29;69.13
54994;BME280;40891;47.242;8.648;2023-03-01T10:52:58;96476.06;;;4.26;69.80
54994;BME280;40891;47.242;8.648;2023-03-01T10:55:34;96469.28;;;4.34;69.76
54994;BME280;40891;47.242;8.648;2023-03-01T11:00:55;96464.22;;;4.29;69.32
54994;BME280;40891;47.242;8.648;2023-03-01T11:03:39;96466.72;;;4.16;69.62
54994;BME280;40891;47.242;8.648;2023-03-01T11:06:05;96471.66;;;4.32;69.40
54994;BME280;40891;47.242;8.648;2023-03-01T11:08:37;96459.44;;;4.36;69.12
54994;BME280;40891;47.242;8.648;2023-03-01T11:11:34;96468.38;;;4.44;69.74
54994;BME280;40891;47.242;8.648;2023-03-01T11:14:05;96466.38;;;4.48;69.60
54994;BME280;40891;47.242;8.648;2023-03-01T11:16:37;96461.53;;;4.59;69.43
54994;BME280;40891;47.242;8.648;2023-03-01T11:21:37;96465.66;;;4.40;68.16
54994;BME280;40891;47.242;8.648;2023-03-01T11:24:08;96466.44;;;4.44;69.32
54994;BME280;40891;47.242;8.648;2023-03-01T11:26:38;96471.78;;;4.55;69.27
54994;BME280;40891;47.242;8.648;2023-03-01T11:29:11;96460.84;;;4.51;69.74
54994;BME280;40891;47.242;8.648;2023-03-01T11:31:39;96460.06;;;4.51;69.93
54994;BME280;40891;47.242;8.648;2023-03-01T11:34:19;96452.06;;;4.60;70.15
54994;BME280;40891;47.242;8.648;2023-03-01T11:36:55;96450.75;;;4.71;69.21
54994;BME280;40891;47.242;8.648;2023-03-01T11:39:31;96444.88;;;4.69;69.33
54994;BME280;40891;47.242;8.648;2023-03-01T11:42:15;96448.13;;;4.61;68.80
54994;BME280;40891;47.242;8.648;2023-03-01T11:44:44;96442.53;;;4.68;68.58
54994;BME280;40891;47.242;8.648;2023-03-01T11:47:21;96429.78;;;4.81;67.31
54994;BME280;40891;47.242;8.648;2023-03-01T11:58:01;96435.78;;;5.03;68.48
54994;BME280;40891;47.242;8.648;2023-03-01T12:06:42;96424.66;;;5.10;67.48
54994;BME280;40891;47.242;8.648;2023-03-01T12:22:35;96406.56;;;4.82;68.92
54994;BME280;40891;47.242;8.648;2023-03-01T12:25:16;96411.03;;;4.69;68.57
54994;BME280;40891;47.242;8.648;2023-03-01T12:27:55;96405.25;;;4.63;68.91
54994;BME280;40891;47.242;8.648;2023-03-01T12:30:40;96400.22;;;4.55;69.69
54994;BME280;40891;47.242;8.648;2023-03-01T12:33:34;96402.16;;;4.58;70.06
54994;BME280;40891;47.242;8.648;2023-03-01T12:41:45;96388.84;;;4.53;71.43
54994;BME280;40891;47.242;8.648;2023-03-01T12:49:40;96396.28;;;4.56;70.79
54994;BME280;40891;47.242;8.648;2023-03-01T12:52:14;96390.06;;;4.52;70.98
54994;BME280;40891;47.242;8.648;2023-03-01T12:54:42;96387.31;;;4.52;71.00
54994;BME280;40891;47.242;8.648;2023-03-01T13:02:41;96379.84;;;4.49;71.97
54994;BME280;40891;47.242;8.648;2023-03-01T13:05:32;96384.03;;;4.60;70.65
54994;BME280;40891;47.242;8.648;2023-03-01T13:10:55;96379.84;;;4.49;70.87
54994;BME280;40891;47.242;8.648;2023-03-01T13:13:25;96377.50;;;4.47;70.62
54994;BME280;40891;47.242;8.648;2023-03-01T13:15:52;96370.72;;;4.55;70.91
54994;BME280;40891;47.242;8.648;2023-03-01T13:20:52;96363.38;;;4.75;69.64
54994;BME280;40891;47.242;8.648;2023-03-01T13:31:01;96383.47;;;4.72;70.93
54994;BME280;40891;47.242;8.648;2023-03-01T13:35:53;96380.84;;;4.62;70.63
54994;BME280;40891;47.242;8.648;2023-03-01T13:38:38;96383.56;;;4.65;69.89
54994;BME280;40891;47.242;8.648;2023-03-01T13:41:06;96392.72;;;4.59;70.20
54994;BME280;40891;47.242;8.648;2023-03-01T13:43:37;96397.47;;;4.55;71.05
54994;BME280;40891;47.242;8.648;2023-03-01T13:46:09;96390.72;;;4.59;70.34
54994;BME280;40891;47.242;8.648;2023-03-01T13:48:38;96389.91;;;4.62;70.98
54994;BME280;40891;47.242;8.648;2023-03-01T13:51:07;96385.97;;;4.63;70.89
54994;BME280;40891;47.242;8.648;2023-03-01T13:53:36;96391.03;;;4.65;70.73
54994;BME280;40891;47.242;8.648;2023-03-01T13:56:16;96400.03;;;4.69;70.45
54994;BME280;40891;47.242;8.648;2023-03-01T14:01:31;96394.63;;;4.62;71.17
54994;BME280;40891;47.242;8.648;2023-03-01T14:03:57;96400.50;;;4.64;70.87
54994;BME280;40891;47.242;8.648;2023-03-01T14:06:31;96384.66;;;4.71;70.99
54994;BME280;40891;47.242;8.648;2023-03-01T14:09:23;96381.53;;;4.69;70.57
54994;BME280;40891;47.242;8.648;2023-03-01T14:17:38;96381.19;;;4.67;70.53
54994;BME280;40891;47.242;8.648;2023-03-01T14:20:14;96377.59;;;4.70;70.48
54994;BME280;40891;47.242;8.648;2023-03-01T14:22:41;96379.59;;;4.66;70.72
54994;BME280;40891;47.242;8.648;2023-03-01T14:27:42;96370.31;;;4.57;70.92
54994;BME280;40891;47.242;8.648;2023-03-01T14:30:19;96371.50;;;4.56;71.02
54994;BME280;40891;47.242;8.648;2023-03-01T14:32:58;96374.34;;;4.49;71.80
54994;BME280;40891;47.242;8.648;2023-03-01T14:35:27;96375.41;;;4.58;70.86
54994;BME280;40891;47.242;8.648;2023-03-01T14:37:53;96372.56;;;4.65;70.23
54994;BME280;40891;47.242;8.648;2023-03-01T14:42:51;96368.06;;;4.48;71.62
54994;BME280;40891;47.242;8.648;2023-03-01T14:45:17;96362.63;;;4.45;71.96
54994;BME280;40891;47.242;8.648;2023-03-01T14:47:43;96364.59;;;4.44;72.30
54994;BME280;40891;47.242;8.648;2023-03-01T14:50:28;96366.56;;;4.44;72.43
54994;BME280;40891;47.242;8.648;2023-03-01T14:52:57;96374.91;;;4.37;72.25
54994;BME280;40891;47.242;8.648;2023-03-01T14:55:30;96374.19;;;4.33;72.10
54994;BME280;40891;47.242;8.648;2023-03-01T14:57:57;96374.66;;;4.24;72.18
54994;BME280;40891;47.242;8.648;2023-03-01T15:00:24;96370.31;;;4.27;72.66